Time;durP1;ratioP1;P1;durP2;ratioP2;P2;SDS_P1;SDS_P2;PMS_P1;PMS_P2;Temp;Humidity;BMP_temperature;BMP_pressure;BME280_temperature;BME280_humidity;BME280_pressure;Samples;Min_cycle;Max_cycle;Signal;HPM_P1;HPM_P2
2022/06/23 00:01:20;;;;;;;3.75;1.50;;;;;;;15.03;67.76;96282.95;1743062;80;21029;-84
2022/06/23 00:03:48;;;;;;;2.60;1.60;;;;;;;15.04;67.86;96279.33;1728154;81;21032;-83
2022/06/23 00:06:28;;;;;;;3.27;1.47;;;;;;;15.03;67.05;96278.52;1742857;80;21462;-82
2022/06/23 00:08:54;;;;;;;4.05;1.52;;;;;;;15.03;67.57;96275.91;1721209;80;21399;-82
2022/06/23 00:11:24;;;;;;;2.25;1.42;;;;;;;15.03;67.08;96281.65;1735291;80;21511;-83
2022/06/23 00:13:50;;;;;;;4.95;1.80;;;;;;;15.03;67.56;96276.41;1713389;80;21389;-82
2022/06/23 00:16:26;;;;;;;3.08;1.52;;;;;;;15.03;68.04;96276.41;1739585;80;21049;-82
2022/06/23 00:18:52;;;;;;;3.15;1.65;;;;;;;15.00;68.04;96269.28;1739975;80;21021;-82
2022/06/23 00:21:30;;;;;;;3.85;1.30;;;;;;;15.01;68.03;96270.89;1682704;82;20995;-83
2022/06/23 00:24:00;;;;;;;3.92;1.42;;;;;;;15.03;68.42;96275.91;1741909;81;21102;-83
2022/06/23 00:26:29;;;;;;;3.50;1.57;;;;;;;15.05;68.15;96275.69;1737254;81;21767;-83
2022/06/23 00:29:13;;;;;;;2.80;1.70;;;;;;;15.08;68.61;96275.27;1707798;83;21518;-83
2022/06/23 00:31:56;;;;;;;3.62;1.55;;;;;;;15.06;68.47;96273.37;1736448;81;21394;-82
2022/06/23 00:34:33;;;;;;;4.35;2.12;;;;;;;15.03;66.74;96269.88;1756858;81;20963;-83
2022/06/23 00:37:14;;;;;;;4.28;1.60;;;;;;;15.00;67.10;96272.41;1764963;81;20916;-82
2022/06/23 00:40:04;;;;;;;2.10;1.60;;;;;;;14.99;67.05;96277.34;1756613;81;21019;-83
2022/06/23 00:42:38;;;;;;;2.27;1.20;;;;;;;14.97;67.20;96276.77;1729184;82;20952;-84
2022/06/23 00:45:21;;;;;;;2.27;1.05;;;;;;;14.93;66.86;96283.41;1732935;81;20956;-84
2022/06/23 00:47:53;;;;;;;3.17;1.40;;;;;;;14.90;66.79;96283.84;1727962;82;20979;-83
2022/06/23 00:50:39;;;;;;;2.77;1.90;;;;;;;14.82;66.09;96276.25;1722309;82;20953;-83
2022/06/23 00:53:16;;;;;;;2.22;1.42;;;;;;;14.82;66.09;96276.25;1717835;83;20956;-83
2022/06/23 00:56:16;;;;;;;2.60;1.30;;;;;;;14.85;66.89;96289.70;1728830;80;20950;-83
2022/06/23 00:58:53;;;;;;;2.10;1.20;;;;;;;14.83;67.32;96288.32;1725843;82;21065;-82
2022/06/23 01:01:52;;;;;;;2.98;1.42;;;;;;;14.78;68.05;96289.44;1703700;83;21544;-83
2022/06/23 01:04:27;;;;;;;2.75;2.00;;;;;;;14.72;67.81;96287.16;1721038;81;21014;-82
2022/06/23 01:07:41;;;;;;;3.12;1.30;;;;;;;14.64;68.04;96297.37;1739324;81;21390;-84
2022/06/23 01:10:21;;;;;;;2.10;1.25;;;;;;;14.63;68.00;96292.33;1714415;80;20962;-83
2022/06/23 01:13:14;;;;;;;2.17;1.50;;;;;;;14.60;68.12;96287.02;1667077;83;21052;-84
2022/06/23 01:15:44;;;;;;;3.30;1.50;;;;;;;14.60;68.45;96283.59;1706105;83;20992;-83
2022/06/23 01:18:19;;;;;;;2.50;1.37;;;;;;;14.56;68.23;96278.50;1709363;82;21042;-83
2022/06/23 01:21:02;;;;;;;2.65;1.60;;;;;;;14.53;68.26;96281.03;1737333;82;21342;-84
2022/06/23 01:23:49;;;;;;;3.52;1.70;;;;;;;14.50;68.08;96289.30;1691237;80;20927;-83
2022/06/23 01:26:39;;;;;;;4.03;1.90;;;;;;;14.47;68.33;96291.50;1757171;81;21029;-83
2022/06/23 01:29:15;;;;;;;1.60;1.40;;;;;;;14.44;68.33;96293.22;1718948;81;21024;-82
2022/06/23 01:31:46;;;;;;;2.72;1.47;;;;;;;14.39;68.53;96295.13;1740092;81;20965;-82
2022/06/23 01:34:28;;;;;;;1.60;1.30;;;;;;;14.38;68.68;96296.14;1731517;82;20971;-83
2022/06/23 01:37:06;;;;;;;3.92;1.55;;;;;;;14.36;68.83;96296.86;1712387;81;21035;-84
2022/06/23 01:39:47;;;;;;;3.52;1.85;;;;;;;14.31;69.11;96300.06;1715623;83;20953;-83
2022/06/23 01:42:26;;;;;;;2.95;1.90;;;;;;;14.25;68.79;96298.30;1730233;82;20962;-83
2022/06/23 01:45:06;;;;;;;3.72;2.08;;;;;;;14.18;68.40;96300.64;1711176;83;20972;-84
2022/06/23 01:47:44;;;;;;;3.72;1.80;;;;;;;14.12;68.47;96299.13;1691347;83;20973;-83
2022/06/23 01:50:18;;;;;;;2.55;1.95;;;;;;;14.09;68.22;96307.89;1718759;82;21042;-83
2022/06/23 01:52:47;;;;;;;2.77;2.22;;;;;;;14.03;68.18;96302.19;1709865;82;21365;-84
2022/06/23 01:55:18;;;;;;;2.15;1.72;;;;;;;13.98;67.73;96301.98;1707625;82;20957;-82
2022/06/23 01:57:48;;;;;;;3.80;1.60;;;;;;;13.95;67.58;96311.53;1730585;82;21073;-83
2022/06/23 02:00:18;;;;;;;2.65;1.77;;;;;;;13.95;67.69;96312.84;1707463;83;21002;-83
2022/06/23 02:03:16;;;;;;;3.87;1.60;;;;;;;13.94;67.89;96313.85;1707410;82;21038;-83
2022/06/23 02:06:21;;;;;;;4.40;1.50;;;;;;;13.94;67.88;96313.85;1726546;82;20975;-83
2022/06/23 02:09:13;;;;;;;3.17;1.92;;;;;;;13.92;68.29;96312.75;1720843;83;21054;-83
2022/06/23 02:11:46;;;;;;;;;;;;;;;13.90;68.58;96316.08;1681702;83;20965;-83
2022/06/23 02:14:44;;;;;;;2.27;1.60;;;;;;;13.88;68.94;96320.70;1677999;83;20089;-83
2022/06/23 02:17:38;;;;;;;2.60;1.85;;;;;;;13.82;68.78;96313.16;1736872;82;21024;-83
2022/06/23 02:20:39;;;;;;;4.25;1.95;;;;;;;13.79;68.92;96315.38;1719790;82;21386;-83
2022/06/23 02:23:23;;;;;;;3.42;1.65;;;;;;;13.77;69.01;96314.78;1736542;82;20986;-83
2022/06/23 02:26:13;;;;;;;3.60;1.80;;;;;;;13.75;68.96;96311.07;1735873;82;21040;-83
2022/06/23 02:29:18;;;;;;;4.20;2.30;;;;;;;13.73;68.58;96322.23;1743085;82;21475;-83
2022/06/23 02:31:55;;;;;;;2.67;1.80;;;;;;;13.69;68.63;96321.03;1730511;82;20968;-85
2022/06/23 02:34:36;;;;;;;2.75;1.77;;;;;;;13.65;68.29;96330.25;1734131;81;20971;-83
2022/06/23 02:37:27;;;;;;;2.58;1.60;;;;;;;13.60;68.20;96327.45;1733042;83;21357;-83
2022/06/23 02:39:55;;;;;;;3.58;2.05;;;;;;;13.55;68.02;96331.17;1745945;81;20963;-84
2022/06/23 02:42:30;;;;;;;3.27;2.10;;;;;;;13.51;67.99;96337.31;1730851;83;20987;-84
2022/06/23 02:45:44;;;;;;;3.30;1.75;;;;;;;13.46;67.88;96338.39;1706647;83;20977;-83
2022/06/23 02:48:43;;;;;;;3.15;1.77;;;;;;;13.47;68.12;96339.19;1710562;83;21016;-83
2022/06/23 02:51:40;;;;;;;3.92;2.37;;;;;;;13.48;68.64;96348.63;1694689;83;21070;-83
2022/06/23 02:54:43;;;;;;;3.08;2.10;;;;;;;13.49;68.89;96351.03;1718689;82;21007;-82
2022/06/23 02:57:20;;;;;;;4.50;1.70;;;;;;;13.47;68.97;96351.74;1739611;82;20979;-82
2022/06/23 03:00:00;;;;;;;3.42;2.30;;;;;;;13.46;68.96;96351.94;1705642;83;21031;-83
2022/06/23 03:02:43;;;;;;;2.33;1.92;;;;;;;13.44;69.41;96349.53;1681060;83;20989;-83
2022/06/23 03:05:23;;;;;;;3.10;2.10;;;;;;;13.42;69.83;96350.75;1734993;82;21002;-83
2022/06/23 03:08:00;;;;;;;4.03;2.50;;;;;;;13.41;70.14;96349.94;1710039;81;21465;-83
2022/06/23 03:10:37;;;;;;;3.27;1.47;;;;;;;13.43;70.51;96351.05;1707586;83;20996;-83
2022/06/23 03:13:08;;;;;;;2.72;2.00;;;;;;;13.45;70.72;96351.64;1729336;83;21019;-82
2022/06/23 03:15:49;;;;;;;2.62;1.70;;;;;;;13.47;70.59;96352.24;1734523;81;20960;-83
2022/06/23 03:18:29;;;;;;;1.80;1.65;;;;;;;13.48;70.48;96352.55;1714214;81;21055;-85
2022/06/23 03:21:00;;;;;;;3.05;2.10;;;;;;;13.48;70.62;96354.66;1716367;81;21008;-83
2022/06/23 03:23:51;;;;;;;2.00;1.67;;;;;;;13.47;70.49;96363.48;1709052;81;20976;-82
2022/06/23 03:26:23;;;;;;;2.50;2.00;;;;;;;13.45;70.64;96364.19;1727047;83;20926;-83
2022/06/23 03:29:06;;;;;;;4.17;1.82;;;;;;;13.45;70.65;96367.30;1724470;82;21435;-83
2022/06/23 03:31:40;;;;;;;2.20;1.65;;;;;;;13.47;70.65;96370.52;1737710;80;21360;-83
2022/06/23 03:34:34;;;;;;;1.98;1.65;;;;;;;13.49;70.76;96369.31;1738202;82;21115;-83
2022/06/23 03:37:08;;;;;;;2.52;2.08;;;;;;;13.53;70.74;96370.23;1737900;80;21309;-84
2022/06/23 03:42:37;;;;;;;2.45;1.90;;;;;;;13.54;70.83;96377.06;1712998;82;20991;-82
2022/06/23 03:45:30;;;;;;;2.92;1.92;;;;;;;13.54;71.25;96383.59;1687112;83;20965;-82
2022/06/23 03:48:16;;;;;;;3.52;1.57;;;;;;;13.54;71.49;96387.51;1717308;83;21104;-82
2022/06/23 03:50:55;;;;;;;3.45;1.70;;;;;;;13.53;71.49;96391.92;1698935;83;21348;-83
2022/06/23 03:54:00;;;;;;;2.55;1.98;;;;;;;13.54;71.49;96389.61;1719935;81;20983;-83
2022/06/23 03:56:29;;;;;;;4.03;2.02;;;;;;;13.56;71.35;96390.72;1733905;81;21434;-83
2022/06/23 03:59:14;;;;;;;2.72;1.85;;;;;;;13.58;71.37;96399.95;1737518;81;21422;-83
2022/06/23 04:01:54;;;;;;;2.95;1.80;;;;;;;13.56;71.55;96400.66;1709264;82;20960;-85
2022/06/23 04:04:24;;;;;;;3.12;1.90;;;;;;;13.56;71.70;96406.38;1722364;82;21032;-83
2022/06/23 04:06:52;;;;;;;2.45;1.65;;;;;;;13.55;71.88;96407.38;1726641;81;21360;-83
2022/06/23 04:09:28;;;;;;;2.45;1.25;;;;;;;13.57;71.98;96410.09;1738689;81;20982;-82
2022/06/23 04:12:07;;;;;;;4.25;1.87;;;;;;;13.62;72.20;96405.06;1724825;82;21013;-82
2022/06/23 04:14:53;;;;;;;4.55;1.90;;;;;;;13.67;72.30;96408.41;1722009;82;20991;-82
2022/06/23 04:17:39;;;;;;;2.47;1.60;;;;;;;13.70;72.21;96412.72;1711760;81;21359;-83
2022/06/23 04:20:18;;;;;;;2.65;1.80;;;;;;;13.72;72.18;96415.93;1723486;82;20918;-83
2022/06/23 04:23:04;;;;;;;2.40;2.00;;;;;;;13.73;72.18;96417.53;1738281;82;21332;-83
2022/06/23 04:25:50;;;;;;;3.87;1.55;;;;;;;13.75;72.33;96420.75;1734689;81;21246;-84
2022/06/23 04:28:30;;;;;;;2.70;1.47;;;;;;;13.79;72.35;96426.37;1681573;82;20956;-84
2022/06/23 04:30:57;;;;;;;4.53;1.98;;;;;;;13.85;72.38;96422.17;1707911;83;21429;-83
2022/06/23 04:33:24;;;;;;;3.52;1.90;;;;;;;13.91;72.43;96426.58;1723692;80;21025;-83
2022/06/23 04:35:54;;;;;;;2.95;2.00;;;;;;;13.94;72.40;96428.78;1714232;80;21110;-83
2022/06/23 04:38:28;;;;;;;2.25;1.55;;;;;;;13.97;72.54;96425.26;1708028;83;21122;-83
2022/06/23 04:41:15;;;;;;;2.15;1.90;;;;;;;13.98;72.78;96428.17;1742748;80;20961;-84
2022/06/23 04:43:45;;;;;;;2.50;2.00;;;;;;;14.00;73.03;96434.53;1727370;81;20963;-82
2022/06/23 04:46:15;;;;;;;2.87;1.80;;;;;;;14.02;73.22;96439.05;1684560;82;21088;-82
2022/06/23 04:48:56;;;;;;;2.42;2.00;;;;;;;14.05;73.34;96438.64;1736745;82;21048;-82
2022/06/23 04:51:31;;;;;;;3.37;1.92;;;;;;;14.09;73.53;96447.17;1744474;81;20971;-83
2022/06/23 04:54:12;;;;;;;3.65;1.92;;;;;;;14.13;73.86;96439.72;1712838;80;21001;-82
2022/06/23 04:56:46;;;;;;;3.62;2.15;;;;;;;14.15;74.01;96444.23;1693021;82;20984;-83
2022/06/23 04:59:43;;;;;;;5.67;2.20;;;;;;;14.15;74.16;96444.23;1737575;81;21011;-82
2022/06/23 05:02:36;;;;;;;2.00;1.80;;;;;;;14.18;74.45;96448.28;1722370;81;21298;-81
2022/06/23 05:05:19;;;;;;;2.87;1.70;;;;;;;14.20;74.78;96455.41;1734669;80;21404;-83
2022/06/23 05:08:03;;;;;;;4.62;1.72;;;;;;;14.23;74.85;96459.73;1742416;80;20974;-83
2022/06/23 05:10:37;;;;;;;1.95;1.72;;;;;;;14.29;75.24;96468.05;1704507;82;21384;-82
2022/06/23 05:13:11;;;;;;;2.52;1.70;;;;;;;14.35;75.48;96470.38;1727817;81;20995;-82
2022/06/23 05:15:44;;;;;;;2.35;1.85;;;;;;;14.42;75.64;96475.89;1720041;83;21010;-83
2022/06/23 05:18:24;;;;;;;3.08;1.52;;;;;;;14.49;75.65;96473.31;1713297;82;20930;-82
2022/06/23 05:21:04;;;;;;;3.17;1.87;;;;;;;14.54;75.96;96480.03;1681165;83;21362;-83
2022/06/23 05:23:46;;;;;;;3.83;2.47;;;;;;;14.58;76.02;96477.81;1741122;81;20982;-84
2022/06/23 05:26:38;;;;;;;3.77;2.00;;;;;;;14.64;76.17;96489.58;1702802;83;21002;-83
2022/06/23 05:29:09;;;;;;;2.08;1.60;;;;;;;14.68;76.41;96486.84;1753611;81;21061;-83
2022/06/23 05:31:35;;;;;;;4.78;2.10;;;;;;;14.77;76.73;96491.34;1739399;81;20993;-82
2022/06/23 05:34:09;;;;;;;3.20;2.10;;;;;;;14.85;76.68;96492.44;1739066;81;21372;-83
2022/06/23 05:36:45;;;;;;;4.05;2.40;;;;;;;14.90;76.84;96498.36;1703379;81;20957;-83
2022/06/23 05:39:24;;;;;;;4.58;1.95;;;;;;;14.95;76.95;96503.27;1754879;81;20943;-83
2022/06/23 05:41:53;;;;;;;2.37;2.00;;;;;;;14.98;76.65;96497.64;1709397;82;20964;-83
2022/06/23 05:44:28;;;;;;;5.30;1.95;;;;;;;15.07;76.94;96505.25;1739993;81;20988;-83
2022/06/23 05:46:53;;;;;;;2.87;2.08;;;;;;;15.11;77.22;96505.93;1756345;81;21024;-83
2022/06/23 05:49:32;;;;;;;2.87;1.98;;;;;;;15.18;77.29;96509.84;1749795;81;21364;-83
2022/06/23 05:52:18;;;;;;;2.67;1.92;;;;;;;15.22;77.51;96511.84;1743439;81;21029;-82
2022/06/23 05:54:53;;;;;;;3.92;1.95;;;;;;;15.30;77.53;96509.00;1740236;81;20965;-83
2022/06/23 05:57:44;;;;;;;3.20;2.08;;;;;;;15.37;77.63;96510.27;1754817;81;21052;-83
2022/06/23 06:00:31;;;;;;;5.00;2.30;;;;;;;15.45;77.75;96510.52;1748501;81;21392;-83
2022/06/23 06:03:06;;;;;;;2.47;2.20;;;;;;;15.51;77.30;96511.02;1741002;81;20915;-83
2022/06/23 06:05:36;;;;;;;7.58;2.55;;;;;;;15.59;77.63;96509.48;1751767;81;21316;-83
2022/06/23 06:08:10;;;;;;;5.10;2.30;;;;;;;15.68;77.06;96512.66;1740699;81;21051;-82
2022/06/23 06:10:35;;;;;;;4.78;3.25;;;;;;;15.72;77.37;96521.20;1710446;82;21069;-84
2022/06/23 06:13:03;;;;;;;4.40;2.72;;;;;;;15.80;77.16;96520.16;1754650;81;21072;-83
2022/06/23 06:15:35;;;;;;;2.58;2.37;;;;;;;15.87;76.31;96523.02;1739587;82;20950;-83
2022/06/23 06:18:23;;;;;;;6.03;2.83;;;;;;;16.00;76.18;96524.77;1741457;81;21031;-83
2022/06/23 06:20:51;;;;;;;7.67;2.67;;;;;;;16.09;76.18;96527.41;1649860;86;20991;-82
2022/06/23 06:23:31;;;;;;;5.45;2.22;;;;;;;16.19;75.96;96530.88;1698773;81;21378;-83
2022/06/23 06:25:57;;;;;;;4.90;2.98;;;;;;;16.27;76.73;96529.80;1739625;81;20964;-84
2022/06/23 06:28:29;;;;;;;3.30;2.33;;;;;;;16.37;74.61;96530.93;1742852;81;21003;-83
2022/06/23 06:31:25;;;;;;;2.40;2.12;;;;;;;16.46;74.81;96532.28;1736425;81;21446;-83
2022/06/23 06:34:17;;;;;;;3.77;2.47;;;;;;;16.57;74.96;96536.52;1741229;80;20961;-83
2022/06/23 06:36:46;;;;;;;3.02;2.72;;;;;;;16.70;73.38;96537.23;1735756;81;20991;-83
2022/06/23 06:39:25;;;;;;;3.17;2.45;;;;;;;16.86;72.96;96541.63;1736117;83;21022;-83
2022/06/23 06:42:07;;;;;;;4.60;2.67;;;;;;;16.98;73.01;96548.58;1749136;80;20992;-84
2022/06/23 06:44:34;;;;;;;4.83;2.40;;;;;;;17.09;73.49;96543.92;1746794;80;21045;-83
2022/06/23 06:47:00;;;;;;;3.27;2.92;;;;;;;17.18;73.05;96548.87;1757304;80;20998;-83
2022/06/23 06:49:25;;;;;;;4.83;2.10;;;;;;;17.27;72.54;96547.06;1738317;81;21003;-83
2022/06/23 06:51:53;;;;;;;7.08;2.70;;;;;;;17.38;73.53;96546.30;1755448;81;20946;-83
2022/06/23 06:54:27;;;;;;;4.22;2.02;;;;;;;17.46;73.34;96554.92;1684109;84;20993;-83
2022/06/23 06:56:56;;;;;;;3.92;2.58;;;;;;;17.56;74.13;96555.19;1722941;80;20962;-84
2022/06/23 06:59:45;;;;;;;4.97;2.58;;;;;;;17.67;72.46;96551.81;1704436;83;21110;-82
2022/06/23 07:02:22;;;;;;;4.97;2.27;;;;;;;17.78;73.14;96555.56;1718192;82;21401;-83
2022/06/23 07:04:52;;;;;;;7.30;3.52;;;;;;;17.88;70.78;96556.61;1738459;81;21381;-83
2022/06/23 07:07:22;;;;;;;4.78;2.55;;;;;;;18.00;68.70;96554.83;1749648;81;21402;-82
2022/06/23 07:09:54;;;;;;;4.85;3.17;;;;;;;18.13;69.57;96553.05;1743861;81;20991;-83
2022/06/23 07:12:30;;;;;;;3.02;2.20;;;;;;;18.23;69.07;96553.31;1742591;81;21011;-83
2022/06/23 07:15:23;;;;;;;3.70;2.40;;;;;;;18.32;67.72;96559.03;1756051;81;21024;-84
2022/06/23 07:18:02;;;;;;;5.00;3.02;;;;;;;18.39;67.75;96561.06;1717962;83;20981;-82
2022/06/23 07:20:57;;;;;;;3.77;2.42;;;;;;;18.48;68.28;96559.17;1717539;82;20987;-82
2022/06/23 07:23:53;;;;;;;4.12;2.22;;;;;;;18.58;66.49;96562.05;1680369;83;20971;-82
2022/06/23 07:26:41;;;;;;;4.65;2.72;;;;;;;18.65;66.43;96562.48;1753144;81;21007;-83
2022/06/23 07:29:42;;;;;;;5.05;2.45;;;;;;;18.72;65.64;96569.25;1735727;81;21445;-82
2022/06/23 07:32:22;;;;;;;4.33;2.72;;;;;;;18.82;65.07;96569.98;1740670;81;21003;-83
2022/06/23 07:34:53;;;;;;;6.08;2.87;;;;;;;18.91;64.63;96577.84;1729578;81;20965;-83
2022/06/23 07:37:38;;;;;;;5.60;2.85;;;;;;;19.01;64.24;96579.88;1741625;81;20975;-84
2022/06/23 07:40:06;;;;;;;3.62;2.50;;;;;;;19.10;65.09;96581.14;1748343;81;20976;-82
2022/06/23 07:42:58;;;;;;;3.67;2.80;;;;;;;19.19;65.02;96583.17;1745814;81;21006;-84
2022/06/23 07:45:51;;;;;;;3.65;2.35;;;;;;;19.26;63.55;96588.34;1751149;81;21342;-82
2022/06/23 07:48:17;;;;;;;4.97;2.45;;;;;;;19.31;61.41;96583.17;1743547;81;21326;-83
2022/06/23 07:50:43;;;;;;;4.17;2.37;;;;;;;19.40;60.92;96594.17;1746462;81;20995;-83
2022/06/23 07:53:19;;;;;;;4.17;2.62;;;;;;;19.47;60.25;96590.36;1752968;81;20916;-82
2022/06/23 07:55:45;;;;;;;4.80;2.67;;;;;;;19.59;59.36;96593.00;1691166;83;20950;-84
2022/06/23 07:58:14;;;;;;;3.90;2.42;;;;;;;19.67;60.46;96591.83;1737209;80;21010;-83
2022/06/23 08:00:41;;;;;;;3.27;2.35;;;;;;;19.72;60.56;96590.62;1727575;81;21047;-83
2022/06/23 08:03:22;;;;;;;5.70;2.65;;;;;;;19.79;60.83;96592.08;1733858;80;21017;-83
2022/06/23 08:05:52;;;;;;;5.33;2.90;;;;;;;19.90;60.75;96594.92;1719789;81;20996;-83
2022/06/23 08:08:24;;;;;;;3.67;2.33;;;;;;;19.99;58.52;96590.86;1695635;83;20968;-83
2022/06/23 08:12:53;;;;;;;3.55;1.77;;;;;;;20.10;56.77;96587.37;1704583;83;21005;-82
2022/06/23 08:13:25;;;;;;;3.62;2.02;;;;;;;20.23;57.68;96583.65;1696892;82;20996;-82
2022/06/23 08:18:52;;;;;;;5.20;2.20;;;;;;;20.46;55.81;96590.66;1683246;83;21002;-83
2022/06/23 08:21:24;;;;;;;3.92;2.17;;;;;;;20.58;56.70;96587.43;1718903;81;21033;-82
2022/06/23 08:24:01;;;;;;;4.75;2.98;;;;;;;20.61;57.30;96588.27;1728947;81;20998;-83
2022/06/23 08:26:27;;;;;;;4.62;2.30;;;;;;;20.66;56.64;96591.80;1738327;80;21306;-83
2022/06/23 08:28:55;;;;;;;3.12;2.47;;;;;;;20.84;55.11;96592.08;1723548;82;21048;-83
2022/06/23 08:31:21;;;;;;;3.90;2.37;;;;;;;21.04;55.44;96587.61;1733659;81;21034;-83
2022/06/23 08:33:47;;;;;;;4.15;2.58;;;;;;;21.27;54.97;96594.02;1730481;81;21052;-83
2022/06/23 08:36:20;;;;;;;6.45;2.58;;;;;;;21.50;54.99;96595.66;1734761;83;21019;-83
2022/06/23 08:38:59;;;;;;;3.10;2.10;;;;;;;21.74;54.70;96602.02;1739076;80;21055;-83
2022/06/23 08:41:36;;;;;;;4.65;2.30;;;;;;;21.96;55.99;96596.16;1699289;83;21009;-83
2022/06/23 08:44:13;;;;;;;4.58;2.12;;;;;;;22.01;54.96;96598.09;1712817;81;21065;-83
2022/06/23 08:46:55;;;;;;;4.42;2.40;;;;;;;22.21;54.04;96604.14;1715472;81;20994;-83
2022/06/23 08:49:56;;;;;;;3.47;1.60;;;;;;;22.39;55.08;96603.78;1721718;81;20998;-83
2022/06/23 08:52:49;;;;;;;3.75;2.22;;;;;;;22.46;53.04;96594.59;1695246;83;20950;-82
2022/06/23 08:55:23;;;;;;;3.22;1.70;;;;;;;22.35;55.49;96605.34;1724492;81;22148;-83
2022/06/23 08:58:05;;;;;;;3.08;1.98;;;;;;;22.27;51.50;96603.13;1730394;81;21008;-84
2022/06/23 09:00:55;;;;;;;4.97;2.30;;;;;;;22.44;52.30;96604.61;1730810;82;21023;-83
2022/06/23 09:03:57;;;;;;;4.55;1.80;;;;;;;22.36;50.18;96606.41;1708029;82;20943;-83
2022/06/23 09:06:42;;;;;;;;;;;;;;;22.57;50.44;96599.96;1731824;80;21025;-84
2022/06/23 09:09:26;;;;;;;3.65;1.75;;;;;;;22.83;50.17;96602.33;1725955;80;20173;-82
2022/06/23 09:12:27;;;;;;;3.77;1.60;;;;;;;22.95;48.49;96601.10;1711017;82;22095;-83
2022/06/23 09:15:26;;;;;;;2.72;1.92;;;;;;;23.08;48.19;96602.48;1681467;83;21441;-83
2022/06/23 09:18:03;;;;;;;2.40;1.80;;;;;;;23.06;47.85;96603.27;1737194;82;21408;-82
2022/06/23 09:20:53;;;;;;;2.12;1.52;;;;;;;23.19;49.71;96601.50;1731434;82;21342;-83
2022/06/23 09:23:34;;;;;;;1.80;1.32;;;;;;;23.25;47.25;96602.32;1723667;81;20971;-82
2022/06/23 09:26:13;;;;;;;3.20;1.57;;;;;;;22.88;47.05;96606.33;1682616;83;21494;-83
2022/06/23 09:28:50;;;;;;;3.02;1.40;;;;;;;22.94;48.22;96602.66;1714418;81;21006;-83
2022/06/23 09:31:27;;;;;;;3.77;2.00;;;;;;;23.11;47.33;96601.20;1735375;81;21461;-83
2022/06/23 09:34:13;;;;;;;2.90;1.75;;;;;;;23.12;47.39;96595.64;1697043;83;21046;-84
2022/06/23 09:37:11;;;;;;;2.72;1.62;;;;;;;23.12;47.77;96594.84;1742200;81;20998;-83
2022/06/23 09:40:08;;;;;;;4.20;1.98;;;;;;;23.24;48.35;96598.08;1738818;81;20962;-83
2022/06/23 09:43:01;;;;;;;1.90;1.60;;;;;;;23.28;46.00;96596.53;1689277;83;21348;-82
2022/06/23 09:46:12;;;;;;;3.75;2.00;;;;;;;23.18;46.59;96597.78;1689778;83;21003;-82
2022/06/23 09:49:16;;;;;;;3.75;1.60;;;;;;;23.06;47.00;96598.77;1725214;81;21453;-83
2022/06/23 09:52:00;;;;;;;2.50;1.82;;;;;;;23.15;48.54;96596.45;1717844;80;20962;-83
2022/06/23 09:55:03;;;;;;;2.27;1.52;;;;;;;23.24;47.38;96599.41;1717374;80;20993;-83
2022/06/23 09:58:04;;;;;;;2.47;1.82;;;;;;;23.38;45.71;96601.87;1722228;80;20978;-83
2022/06/23 10:00:51;;;;;;;4.33;2.10;;;;;;;23.50;47.85;96603.80;1733666;80;21108;-83
2022/06/23 10:03:40;;;;;;;2.67;1.70;;;;;;;23.39;45.06;96608.77;1736737;81;21405;-81
2022/06/23 10:06:32;;;;;;;3.70;2.00;;;;;;;23.34;46.08;96601.59;1724829;81;20932;-83
2022/06/23 10:09:23;;;;;;;3.77;2.20;;;;;;;23.46;46.32;96604.58;1719902;80;21353;-82
2022/06/23 10:12:07;;;;;;;3.23;1.57;;;;;;;23.40;43.26;96600.28;1703660;83;21006;-83
2022/06/23 10:15:05;;;;;;;2.77;2.30;;;;;;;23.40;44.13;96597.63;1724631;80;20985;-82
2022/06/23 10:18:00;;;;;;;3.30;2.20;;;;;;;23.53;44.55;96594.52;1688348;84;21370;-82
2022/06/23 10:20:40;;;;;;;2.95;1.98;;;;;;;23.55;43.22;96598.50;1716520;80;21388;-83
2022/06/23 10:23:18;;;;;;;4.87;2.25;;;;;;;23.45;45.31;96606.96;1720059;82;21019;-81
2022/06/23 10:26:03;;;;;;;4.55;2.27;;;;;;;23.50;46.26;96598.49;1688126;83;21339;-81
2022/06/23 10:28:57;;;;;;;3.50;2.05;;;;;;;23.64;45.56;96600.98;1723917;80;20943;-82
2022/06/23 10:31:38;;;;;;;5.97;2.40;;;;;;;23.75;46.66;96597.02;1722595;81;22146;-82
2022/06/23 10:34:36;;;;;;;3.50;2.33;;;;;;;23.84;46.41;96601.57;1761687;81;21026;-83
2022/06/23 10:37:10;;;;;;;3.27;2.33;;;;;;;23.94;44.90;96599.49;1742860;81;20945;-82
2022/06/23 10:40:14;;;;;;;5.95;2.25;;;;;;;23.95;44.50;96596.58;1712696;80;20942;-82
2022/06/23 10:42:51;;;;;;;3.95;2.45;;;;;;;24.02;45.13;96598.97;1723739;82;21087;-83
2022/06/23 10:45:31;;;;;;;4.50;2.62;;;;;;;24.17;47.04;96602.19;1725921;82;20967;-81
2022/06/23 10:48:20;;;;;;;3.02;2.25;;;;;;;24.17;45.70;96598.21;1729514;81;20930;-83
2022/06/23 10:51:19;;;;;;;5.45;2.98;;;;;;;24.28;44.93;96596.38;1727394;80;21401;-82
2022/06/23 10:54:23;;;;;;;6.08;2.70;;;;;;;24.28;45.24;96598.50;1680766;82;20979;-82
2022/06/23 10:57:18;;;;;;;2.60;2.00;;;;;;;23.98;45.82;96604.54;1733292;80;20946;-82
2022/06/23 11:00:05;;;;;;;4.15;2.80;;;;;;;23.91;44.07;96599.46;1710110;81;20976;-82
2022/06/23 11:03:00;;;;;;;4.17;2.40;;;;;;;23.89;41.91;96604.23;1727601;81;20946;-83
2022/06/23 11:06:03;;;;;;;3.85;2.45;;;;;;;23.92;43.70;96601.09;1727852;80;20966;-83
2022/06/23 11:08:50;;;;;;;2.92;2.37;;;;;;;23.95;42.36;96597.11;1717698;81;22083;-82
2022/06/23 11:11:48;;;;;;;4.60;2.30;;;;;;;23.97;43.83;96596.31;1713239;81;21466;-83
2022/06/23 11:14:41;;;;;;;4.28;2.67;;;;;;;23.76;45.98;96604.75;1717870;80;21010;-83
2022/06/23 11:17:34;;;;;;;3.25;2.12;;;;;;;23.70;45.74;96604.44;1730814;80;21002;-83
2022/06/23 11:20:29;;;;;;;3.10;2.60;;;;;;;23.90;47.01;96604.50;1718169;80;21042;-83
2022/06/23 11:23:06;;;;;;;4.62;2.60;;;;;;;23.99;46.39;96601.36;1734575;80;21301;-83
2022/06/23 11:25:55;;;;;;;4.83;2.37;;;;;;;23.99;47.63;96601.36;1729714;80;20986;-83
2022/06/23 11:29:13;;;;;;;3.80;2.52;;;;;;;23.79;46.36;96604.22;1740152;80;21029;-82
2022/06/23 11:32:20;;;;;;;4.65;2.30;;;;;;;23.72;46.47;96600.19;1716302;80;21018;-82
2022/06/23 11:34:54;;;;;;;2.45;2.12;;;;;;;23.87;45.90;96593.09;1739234;81;21002;-82
2022/06/23 11:38:11;;;;;;;5.45;2.25;;;;;;;24.13;47.50;96597.14;1737919;80;20962;-84
2022/06/23 11:41:00;;;;;;;3.62;2.00;;;;;;;24.22;45.38;96588.92;1718740;81;21465;-82
2022/06/23 11:43:33;;;;;;;3.65;2.40;;;;;;;24.28;47.00;96590.54;1740132;80;20972;-83
2022/06/23 11:46:13;;;;;;;3.27;2.15;;;;;;;24.38;46.07;96590.56;1726517;80;20936;-83
2022/06/23 11:48:59;;;;;;;3.83;2.40;;;;;;;24.40;42.56;96592.42;1725038;80;21022;-83
2022/06/23 11:51:39;;;;;;;4.40;2.50;;;;;;;24.30;43.25;96592.96;1726059;80;20974;-83
2022/06/23 11:54:34;;;;;;;2.98;2.22;;;;;;;24.29;45.59;96593.99;1736567;80;21365;-82
2022/06/23 11:57:07;;;;;;;3.77;2.27;;;;;;;24.20;41.95;96587.86;1693082;80;20972;-81
2022/06/23 11:59:56;;;;;;;;;;;;;;;24.14;42.90;96588.92;1693547;83;20993;-82
2022/06/23 12:02:22;;;;;;;3.77;2.40;;;;;;;24.30;44.96;96589.77;1730408;80;20109;-82
2022/06/23 12:05:22;;;;;;;3.75;2.10;;;;;;;24.41;42.82;96592.72;1736222;80;20974;-82
2022/06/23 12:08:12;;;;;;;4.45;2.20;;;;;;;24.38;41.89;96586.58;1638526;83;21014;-82
2022/06/23 12:10:38;;;;;;;4.97;2.47;;;;;;;24.45;42.38;96579.70;1740117;82;21038;-82
2022/06/23 12:13:04;;;;;;;3.40;2.17;;;;;;;24.53;46.54;96573.31;1735716;80;20992;-82
2022/06/23 12:15:34;;;;;;;2.95;2.10;;;;;;;24.68;43.26;96573.84;1722136;81;21345;-83
2022/06/23 12:18:36;;;;;;;3.52;2.20;;;;;;;24.74;42.37;96573.33;1707102;81;21012;-82
2022/06/23 12:21:26;;;;;;;4.50;2.27;;;;;;;24.76;42.88;96576.52;1707691;80;21113;-82
2022/06/23 12:24:17;;;;;;;3.35;2.05;;;;;;;24.76;43.12;96573.86;1706972;83;21060;-83
2022/06/23 12:26:47;;;;;;;3.42;2.25;;;;;;;24.81;40.17;96575.97;1709112;80;20990;-83
2022/06/23 12:29:50;;;;;;;3.58;2.12;;;;;;;24.58;41.54;96565.89;1707747;80;21405;-83
2022/06/23 12:32:47;;;;;;;3.62;2.37;;;;;;;24.66;43.16;96556.58;1724309;80;21030;-83
2022/06/23 12:35:46;;;;;;;3.30;1.77;;;;;;;24.81;44.83;96560.55;1710194;80;21005;-82
2022/06/23 12:38:35;;;;;;;2.10;1.67;;;;;;;24.86;42.48;96560.54;1726946;80;21058;-82
2022/06/23 12:41:15;;;;;;;2.10;1.90;;;;;;;24.90;42.38;96552.31;1656180;80;21356;-83
2022/06/23 12:44:18;;;;;;;6.10;2.33;;;;;;;24.99;45.13;96556.53;1736360;80;21014;-83
2022/06/23 12:47:23;;;;;;;3.33;2.20;;;;;;;24.86;41.02;96559.20;1724210;80;21082;-83
2022/06/23 12:50:35;;;;;;;3.52;1.90;;;;;;;24.86;41.59;96560.54;1737058;81;21346;-83